createdAt,value
2018-12-29T00:00:43.239Z,99805.06
2018-12-29T00:03:11.799Z,99803.30
2018-12-29T00:05:40.410Z,99805.02
2018-12-29T00:08:12.010Z,99816.32
2018-12-29T00:10:40.804Z,99817.22
2018-12-29T00:13:09.435Z,99819.01
2018-12-29T00:15:40.832Z,99816.00
2018-12-29T00:18:09.435Z,99810.34
2018-12-29T00:20:37.996Z,99810.75
2018-12-29T00:23:09.598Z,99811.73
2018-12-29T00:25:38.197Z,99809.17
2018-12-29T00:28:06.879Z,99812.17
2018-12-29T00:30:35.518Z,99812.99
2018-12-29T00:33:04.183Z,99819.33
2018-12-29T00:35:32.802Z,99821.84
2018-12-29T00:38:04.406Z,99825.73
2018-12-29T00:40:33.107Z,99820.00
2018-12-29T00:43:01.631Z,99827.80
2018-12-29T00:45:30.245Z,99833.02
2018-12-29T00:47:59.781Z,99845.98
2018-12-29T00:50:32.200Z,99847.30
2018-12-29T00:53:03.775Z,99844.69
2018-12-29T00:55:36.815Z,99848.59
2018-12-29T00:58:05.390Z,99847.33
2018-12-29T01:00:37.081Z,99849.53
2018-12-29T01:03:05.645Z,99842.13
2018-12-29T01:05:34.402Z,99851.19
2018-12-29T01:08:02.972Z,99834.68
2018-12-29T01:10:31.639Z,99844.69
2018-12-29T01:13:00.253Z,99840.28
2018-12-29T01:15:28.841Z,99844.60
2018-12-29T01:17:57.338Z,99836.38
2018-12-29T01:20:29.667Z,99836.03
2018-12-29T01:22:58.297Z,99839.53
2018-12-29T01:25:26.863Z,99830.05
2018-12-29T01:27:55.538Z,99831.72
2018-12-29T01:30:24.097Z,99829.47
2018-12-29T01:32:52.693Z,99822.60
2018-12-29T01:35:21.261Z,99817.39
2018-12-29T01:37:49.734Z,99812.67
2018-12-29T01:40:18.356Z,99810.89
2018-12-29T01:42:46.951Z,99805.68
2018-12-29T01:45:17.536Z,99807.06
2018-12-29T01:47:47.016Z,99808.37
2018-12-29T01:50:15.706Z,99804.33
2018-12-29T01:52:44.363Z,99800.06
2018-12-29T01:55:15.837Z,99798.81
2018-12-29T01:57:44.509Z,99799.66
2018-12-29T02:00:13.065Z,99805.81
2018-12-29T02:02:41.699Z,99799.77
2018-12-29T02:05:13.175Z,99800.83
2018-12-29T02:07:41.864Z,99801.08
2018-12-29T02:10:10.477Z,99802.25
2018-12-29T02:12:38.974Z,99802.44
2018-12-29T02:15:10.135Z,99809.94
2018-12-29T02:17:38.803Z,99803.58
2018-12-29T02:20:07.497Z,99811.47
2018-12-29T02:22:36.199Z,99813.78
2018-12-29T02:25:05.177Z,99814.38
2018-12-29T02:27:36.812Z,99807.59
2018-12-29T02:30:06.185Z,99802.06
2018-12-29T02:32:34.787Z,99801.25
2018-12-29T02:35:12.309Z,99795.28
2018-12-29T02:37:40.925Z,99797.83
2018-12-29T02:40:12.684Z,99795.73
2018-12-29T02:42:41.321Z,99800.11
2018-12-29T02:45:09.861Z,99793.71
2018-12-29T02:47:39.038Z,99792.88
2018-12-29T02:50:07.662Z,99789.45
2018-12-29T02:52:36.365Z,99788.60
2018-12-29T02:55:06.305Z,99794.64
2018-12-29T02:57:34.843Z,99799.86
2018-12-29T03:00:04.484Z,99803.33
2018-12-29T03:02:35.972Z,99812.88
2018-12-29T03:05:07.598Z,99809.00
2018-12-29T03:07:36.138Z,99815.92
2018-12-29T03:10:08.252Z,99821.07
2018-12-29T03:12:39.931Z,99808.93
2018-12-29T03:15:08.521Z,99808.47
2018-12-29T03:17:38.141Z,99812.30
2018-12-29T03:20:09.531Z,99803.93
2018-12-29T03:22:38.026Z,99805.95
2018-12-29T03:25:06.667Z,99809.36
2018-12-29T03:27:35.154Z,99802.78
2018-12-29T03:30:03.785Z,99803.93
2018-12-29T03:32:32.368Z,99807.70
2018-12-29T03:35:00.924Z,99805.11
2018-12-29T03:37:29.571Z,99802.50
2018-12-29T03:39:58.041Z,99804.66
2018-12-29T03:42:26.646Z,99807.26
2018-12-29T03:44:55.126Z,99808.14
2018-12-29T03:47:23.724Z,99813.69
2018-12-29T03:49:52.338Z,99806.34
2018-12-29T03:52:21.021Z,99808.09
2018-12-29T03:54:53.864Z,99805.83
2018-12-29T03:57:22.543Z,99810.17
2018-12-29T03:59:51.012Z,99812.77
2018-12-29T04:02:19.598Z,99807.58
2018-12-29T04:04:48.277Z,99808.50
2018-12-29T04:07:16.874Z,99806.47
2018-12-29T04:09:49.766Z,99803.19
2018-12-29T04:12:18.324Z,99805.48
2018-12-29T04:14:47.004Z,99805.98
2018-12-29T04:17:15.554Z,99803.49
2018-12-29T04:19:49.992Z,99811.81
2018-12-29T04:22:24.101Z,99819.63
2018-12-29T04:24:52.698Z,99820.97
2018-12-29T04:27:21.265Z,99827.10
2018-12-29T04:29:49.881Z,99831.94
2018-12-29T04:32:18.510Z,99831.97
2018-12-29T04:34:47.054Z,99828.16
2018-12-29T04:37:15.688Z,99830.31
2018-12-29T04:39:44.314Z,99826.02
2018-12-29T04:42:17.242Z,99839.41
2018-12-29T04:44:45.797Z,99834.66
2018-12-29T04:47:14.474Z,99835.91
2018-12-29T04:49:42.972Z,99837.45
2018-12-29T04:52:11.600Z,99833.30
2018-12-29T04:54:40.198Z,99834.36
2018-12-29T04:57:08.799Z,99830.73
2018-12-29T04:59:37.364Z,99832.39
2018-12-29T05:02:06.044Z,99838.38
2018-12-29T05:04:34.599Z,99838.73
2018-12-29T05:07:03.286Z,99845.23
2018-12-29T05:09:31.826Z,99840.06
2018-12-29T05:12:00.400Z,99839.55
2018-12-29T05:14:28.960Z,99853.82
2018-12-29T05:16:57.564Z,99847.70
2018-12-29T05:19:26.165Z,99848.56
2018-12-29T05:21:54.642Z,99860.60
2018-12-29T05:24:23.294Z,99864.13
2018-12-29T05:26:51.848Z,99866.41
2018-12-29T05:29:20.516Z,99858.13
2018-12-29T05:31:49.074Z,99860.22
2018-12-29T05:34:17.682Z,99862.00
2018-12-29T05:36:46.313Z,99872.91
2018-12-29T05:39:14.819Z,99872.05
2018-12-29T05:41:43.419Z,99879.43
2018-12-29T05:44:12.019Z,99878.61
2018-12-29T05:46:40.550Z,99883.86
2018-12-29T05:49:09.144Z,99884.36
2018-12-29T05:51:37.792Z,99887.90
2018-12-29T05:54:06.477Z,99884.44
2018-12-29T05:56:35.010Z,99893.14
2018-12-29T05:59:03.577Z,99895.37
2018-12-29T06:01:32.170Z,99900.59
2018-12-29T06:04:00.647Z,99888.52
2018-12-29T06:06:29.260Z,99891.99
2018-12-29T06:08:57.880Z,99889.86
2018-12-29T06:11:26.438Z,99898.94
2018-12-29T06:13:54.965Z,99911.47
2018-12-29T06:16:27.635Z,99904.49
2018-12-29T06:18:53.783Z,99897.51
2018-12-29T06:21:22.271Z,99897.05
2018-12-29T06:23:55.021Z,99901.74
2018-12-29T06:26:26.286Z,99901.72
2018-12-29T06:28:54.820Z,99911.23
2018-12-29T06:31:23.541Z,99909.02
2018-12-29T06:33:52.088Z,99903.84
2018-12-29T06:36:20.620Z,99910.40
2018-12-29T06:38:49.164Z,99916.90
2018-12-29T06:41:20.759Z,99914.70
2018-12-29T06:43:49.391Z,99910.81
2018-12-29T06:46:17.986Z,99916.84
2018-12-29T06:48:46.598Z,99922.01
2018-12-29T06:51:15.132Z,99915.02
2018-12-29T06:53:43.668Z,99915.46
2018-12-29T06:56:12.164Z,99908.46
2018-12-29T06:58:41.725Z,99910.59
2018-12-29T07:01:10.351Z,99909.30
2018-12-29T07:03:38.900Z,99914.46
2018-12-29T07:06:07.458Z,99913.64
2018-12-29T07:08:36.099Z,99911.03
2018-12-29T07:11:04.768Z,99913.19
2018-12-29T07:13:33.247Z,99914.88
2018-12-29T07:16:01.923Z,99912.63
2018-12-29T07:18:30.482Z,99912.63
2018-12-29T07:20:59.083Z,99914.81
2018-12-29T07:23:27.568Z,99921.64
2018-12-29T07:25:56.158Z,99915.11
2018-12-29T07:28:24.644Z,99910.70
2018-12-29T07:30:53.181Z,99917.20
2018-12-29T07:33:21.812Z,99903.31
2018-12-29T07:35:50.374Z,99897.62
2018-12-29T07:38:18.964Z,99911.05
2018-12-29T07:40:47.584Z,99903.66
2018-12-29T07:43:16.191Z,99906.32
2018-12-29T07:45:44.749Z,99913.71
2018-12-29T07:48:13.436Z,99914.06
2018-12-29T07:50:42.110Z,99915.30
2018-12-29T07:53:10.596Z,99910.47
2018-12-29T07:55:39.156Z,99912.21
2018-12-29T07:58:07.796Z,99917.89
2018-12-29T08:00:37.249Z,99920.05
2018-12-29T08:03:06.629Z,99922.62
2018-12-29T08:05:35.187Z,99927.75
2018-12-29T08:08:03.758Z,99923.75
2018-12-29T08:10:32.454Z,99924.53
2018-12-29T08:13:00.947Z,99930.14
2018-12-29T08:15:29.569Z,99926.09
2018-12-29T08:17:58.059Z,99920.07
2018-12-29T08:20:35.352Z,99914.91
2018-12-29T08:23:07.825Z,99923.48
2018-12-29T08:25:36.424Z,99928.36
2018-12-29T08:28:08.147Z,99924.49
2018-12-29T08:30:36.661Z,99920.21
2018-12-29T08:33:05.131Z,99924.94
2018-12-29T08:35:33.730Z,99925.75
2018-12-29T08:38:02.269Z,99927.47
2018-12-29T08:40:30.857Z,99927.77
2018-12-29T08:43:05.576Z,99918.20
2018-12-29T08:45:34.130Z,99918.12
2018-12-29T08:48:02.664Z,99921.62
2018-12-29T08:50:38.189Z,99921.61
2018-12-29T08:53:06.720Z,99922.84
2018-12-29T08:55:35.267Z,99921.86
2018-12-29T08:58:03.941Z,99915.84
2018-12-29T09:00:32.489Z,99916.61
2018-12-29T09:03:01.082Z,99915.77
2018-12-29T09:05:29.565Z,99918.32
2018-12-29T09:07:58.096Z,99911.31
2018-12-29T09:10:26.565Z,99904.32
2018-12-29T09:12:55.058Z,99905.98
2018-12-29T09:15:23.610Z,99905.00
2018-12-29T09:17:52.241Z,99899.34
2018-12-29T09:20:20.912Z,99911.83
2018-12-29T09:22:49.400Z,99911.73
2018-12-29T09:25:18.011Z,99905.13
2018-12-29T09:27:46.607Z,99915.05
2018-12-29T09:30:15.278Z,99913.25
2018-12-29T09:32:43.869Z,99915.22
2018-12-29T09:35:16.254Z,99915.52
2018-12-29T09:37:44.791Z,99916.58
2018-12-29T09:40:13.323Z,99917.22
2018-12-29T09:42:45.806Z,99913.49
2018-12-29T09:45:14.401Z,99913.20
2018-12-29T09:47:42.946Z,99925.23
2018-12-29T09:50:11.610Z,99914.74
2018-12-29T09:52:40.133Z,99917.91
2018-12-29T09:55:08.769Z,99918.58
2018-12-29T09:57:37.328Z,99918.38
2018-12-29T10:00:07.750Z,99913.73
2018-12-29T10:02:42.356Z,99915.54
2018-12-29T10:05:10.956Z,99917.91
2018-12-29T10:07:39.494Z,99911.75
2018-12-29T10:10:08.042Z,99906.41
2018-12-29T10:12:36.712Z,99902.95
2018-12-29T10:15:07.109Z,99906.58
2018-12-29T10:17:35.645Z,99910.94
2018-12-29T10:20:12.676Z,99911.91
2018-12-29T10:22:45.562Z,99906.89
2018-12-29T10:25:14.054Z,99904.44
2018-12-29T10:27:42.799Z,99909.26
2018-12-29T10:30:11.420Z,99913.41
2018-12-29T10:32:39.999Z,99898.78
2018-12-29T10:35:08.558Z,99899.32
2018-12-29T10:37:37.173Z,99904.09
2018-12-29T10:40:06.198Z,99905.93
2018-12-29T10:42:34.666Z,99897.66
2018-12-29T10:45:03.341Z,99904.59
2018-12-29T10:47:34.633Z,99894.16
2018-12-29T10:50:02.351Z,99892.41
2018-12-29T10:52:30.946Z,99888.00
2018-12-29T10:54:59.662Z,99897.62
2018-12-29T10:57:28.265Z,99891.09
2018-12-29T10:59:56.755Z,99887.19
2018-12-29T11:02:25.276Z,99885.84
2018-12-29T11:04:53.794Z,99896.56
2018-12-29T11:07:22.347Z,99900.44
2018-12-29T11:09:50.874Z,99902.84
2018-12-29T11:12:19.550Z,99894.67
2018-12-29T11:14:48.018Z,99898.62
2018-12-29T11:17:16.617Z,99894.22
2018-12-29T11:19:45.212Z,99892.52
2018-12-29T11:22:13.801Z,99901.54
2018-12-29T11:24:42.357Z,99896.71
2018-12-29T11:27:10.905Z,99896.72
2018-12-29T11:29:39.496Z,99899.63
2018-12-29T11:32:08.110Z,99911.59
2018-12-29T11:34:36.641Z,99908.22
2018-12-29T11:37:09.154Z,99897.77
2018-12-29T11:39:37.679Z,99912.08
2018-12-29T11:42:06.332Z,99914.18
2018-12-29T11:44:34.950Z,99925.23
2018-12-29T11:47:03.483Z,99925.58
2018-12-29T11:49:31.957Z,99926.13
2018-12-29T11:52:00.478Z,99919.72
2018-12-29T11:54:29.034Z,99929.69
2018-12-29T11:56:57.642Z,99925.03
2018-12-29T11:59:26.266Z,99934.97
2018-12-29T12:01:59.179Z,99929.62
2018-12-29T12:04:27.709Z,99937.67
2018-12-29T12:06:56.268Z,99940.20
2018-12-29T12:09:24.747Z,99936.83
2018-12-29T12:11:53.270Z,99944.73
2018-12-29T12:14:21.827Z,99942.13
2018-12-29T12:16:50.395Z,99952.06
2018-12-29T12:19:19.371Z,99948.25
2018-12-29T12:21:47.913Z,99950.86
2018-12-29T12:24:16.580Z,99950.50
2018-12-29T12:26:49.049Z,99958.41
2018-12-29T12:29:17.545Z,99963.58
2018-12-29T12:31:46.338Z,99967.98
2018-12-29T12:34:14.893Z,99968.60
2018-12-29T12:36:43.861Z,99969.95
2018-12-29T12:39:12.404Z,99978.21
2018-12-29T12:41:40.962Z,99979.92
2018-12-29T12:44:09.519Z,99977.69
2018-12-29T12:46:38.492Z,99982.44
2018-12-29T12:49:07.245Z,99979.52
2018-12-29T12:51:35.913Z,99987.38
2018-12-29T12:54:06.852Z,99987.86
2018-12-29T12:56:35.391Z,99999.14
2018-12-29T12:59:05.787Z,99993.56
2018-12-29T13:01:34.378Z,99996.21
2018-12-29T13:04:02.947Z,100002.28
2018-12-29T13:06:31.634Z,100003.53
2018-12-29T13:09:00.131Z,100007.48
2018-12-29T13:11:28.963Z,100012.62
2018-12-29T13:13:57.488Z,100015.62
2018-12-29T13:16:26.018Z,100019.09
2018-12-29T13:18:57.270Z,100019.91
2018-12-29T13:21:28.562Z,100019.09
2018-12-29T13:23:57.333Z,100027.80
2018-12-29T13:26:30.342Z,100019.66
2018-12-29T13:29:01.316Z,100021.03
2018-12-29T13:31:29.882Z,100025.84
2018-12-29T13:33:58.740Z,100028.96
2018-12-29T13:36:27.331Z,100033.39
2018-12-29T13:38:55.976Z,100031.20
2018-12-29T13:41:24.534Z,100026.95
2018-12-29T13:43:53.050Z,100040.86
2018-12-29T13:46:21.881Z,100039.59
2018-12-29T13:48:50.495Z,100030.55
2018-12-29T13:51:19.113Z,100047.16
2018-12-29T13:53:47.746Z,100048.58
2018-12-29T13:56:16.423Z,100051.69
2018-12-29T13:58:45.145Z,100053.48
2018-12-29T14:01:13.763Z,100053.99
2018-12-29T14:03:42.814Z,100053.60
2018-12-29T14:06:11.488Z,100056.23
2018-12-29T14:08:40.051Z,100064.09
2018-12-29T14:11:09.154Z,100064.11
2018-12-29T14:13:37.789Z,100059.38
2018-12-29T14:16:06.339Z,100061.59
2018-12-29T14:18:34.944Z,100063.80
2018-12-29T14:21:03.590Z,100067.28
2018-12-29T14:23:34.733Z,100074.66
2018-12-29T14:26:03.359Z,100076.84
2018-12-29T14:28:31.866Z,100078.14
2018-12-29T14:31:00.868Z,100082.51
2018-12-29T14:33:29.637Z,100082.97
2018-12-29T14:35:58.267Z,100080.39
2018-12-29T14:38:26.833Z,100086.05
2018-12-29T14:40:55.368Z,100085.63
2018-12-29T14:43:23.922Z,100083.94
2018-12-29T14:45:52.723Z,100090.89
2018-12-29T14:48:21.311Z,100090.03
2018-12-29T14:50:49.880Z,100086.16
2018-12-29T14:53:21.313Z,100094.36
2018-12-29T14:55:49.968Z,100099.17
2018-12-29T14:58:22.611Z,100093.13
2018-12-29T15:00:51.170Z,100096.19
2018-12-29T15:03:25.366Z,100102.72
2018-12-29T15:05:54.542Z,100104.45
2018-12-29T15:08:23.373Z,100110.50
2018-12-29T15:10:51.922Z,100123.94
2018-12-29T15:13:21.564Z,100126.11
2018-12-29T15:15:50.060Z,100137.81
2018-12-29T15:18:19.530Z,100130.03
2018-12-29T15:20:52.139Z,100141.74
2018-12-29T15:23:20.732Z,100145.23
2018-12-29T15:25:49.354Z,100146.09
2018-12-29T15:28:17.976Z,100157.38
2018-12-29T15:30:46.967Z,100162.11
2018-12-29T15:33:15.546Z,100164.28
2018-12-29T15:35:44.227Z,100163.44
2018-12-29T15:38:12.958Z,100168.61
2018-12-29T15:40:41.588Z,100168.63
2018-12-29T15:43:17.607Z,100168.23
2018-12-29T15:45:46.230Z,100175.14
2018-12-29T15:48:14.856Z,100171.69
2018-12-29T15:50:43.495Z,100173.84
2018-12-29T15:53:15.126Z,100179.46
2018-12-29T15:55:43.754Z,100175.58
2018-12-29T15:58:12.776Z,100181.66
2018-12-29T16:00:44.692Z,100180.77
2018-12-29T16:03:16.639Z,100175.61
2018-12-29T16:05:45.323Z,100174.74
2018-12-29T16:08:17.165Z,100176.92
2018-12-29T16:10:48.528Z,100181.66
2018-12-29T16:13:17.088Z,100185.58
2018-12-29T16:15:45.666Z,100187.30
2018-12-29T16:18:17.028Z,100189.46
2018-12-29T16:20:53.106Z,100187.71
2018-12-29T16:23:19.554Z,100192.50
2018-12-29T16:25:49.164Z,100202.01
2018-12-29T16:28:17.866Z,100208.94
2018-12-29T16:30:46.459Z,100215.44
2018-12-29T16:33:53.825Z,100215.00
2018-12-29T16:36:59.315Z,100221.48
2018-12-29T16:40:04.595Z,100219.34
2018-12-29T16:42:52.861Z,100223.67
2018-12-29T16:45:59.111Z,100224.95
2018-12-29T16:49:06.907Z,100236.22
2018-12-29T16:51:59.581Z,100238.83
2018-12-29T16:55:04.168Z,100241.41
2018-12-29T16:58:10.246Z,100242.70
2018-12-29T17:00:58.250Z,100241.41
2018-12-29T17:04:02.994Z,100240.97
2018-12-29T17:06:51.529Z,100242.72
2018-12-29T17:09:56.064Z,100242.28
2018-12-29T17:13:03.478Z,100244.00
2018-12-29T17:15:51.369Z,100251.35
2018-12-29T17:18:56.002Z,100249.20
2018-12-29T17:21:44.130Z,100241.41
2018-12-29T17:24:52.955Z,100243.57
2018-12-29T17:27:41.186Z,100248.34
2018-12-29T17:30:46.234Z,100248.36
2018-12-29T17:33:34.251Z,100253.55
2018-12-29T17:36:42.224Z,100250.50
2018-12-29T17:39:32.625Z,100249.66
2018-12-29T17:42:39.293Z,100256.14
2018-12-29T17:45:29.331Z,100251.38
2018-12-29T17:48:35.577Z,100255.69
2018-12-29T17:51:23.554Z,100258.30
2018-12-29T17:54:35.229Z,100247.92
2018-12-29T17:57:22.923Z,100247.48
2018-12-29T18:00:27.468Z,100257.42
2018-12-29T18:03:15.697Z,100257.02
2018-12-29T18:06:26.186Z,100263.06
2018-12-29T18:09:14.725Z,100263.05
2018-12-29T18:12:23.075Z,100265.23
2018-12-29T18:15:17.480Z,100266.09
2018-12-29T18:18:22.457Z,100266.94
2018-12-29T18:21:11.830Z,100266.08
2018-12-29T18:24:16.349Z,100272.56
2018-12-29T18:27:05.872Z,100274.27
2018-12-29T18:30:11.834Z,100286.33
2018-12-29T18:33:01.046Z,100282.42
2018-12-29T18:36:06.702Z,100285.88
2018-12-29T18:38:54.903Z,100292.34
2018-12-29T18:42:00.086Z,100294.51
2018-12-29T18:44:50.948Z,100298.01
2018-12-29T18:47:56.320Z,100304.95
2018-12-29T18:50:45.657Z,100301.06
2018-12-29T18:53:51.838Z,100299.73
2018-12-29T18:56:59.622Z,100297.54
2018-12-29T18:59:48.981Z,100296.67
2018-12-29T19:02:53.565Z,100299.69
2018-12-29T19:05:41.737Z,100292.30
2018-12-29T19:08:46.404Z,100300.92
2018-12-29T19:11:34.188Z,100303.88
2018-12-29T19:14:42.208Z,100302.97
2018-12-29T19:17:49.473Z,100305.48
2018-12-29T19:20:54.490Z,100305.05
2018-12-29T19:23:42.806Z,100296.83
2018-12-29T19:26:48.359Z,100295.58
2018-12-29T19:29:53.362Z,100292.59
2018-12-29T19:32:41.469Z,100303.41
2018-12-29T19:35:49.782Z,100304.27
2018-12-29T19:38:41.435Z,100304.67
2018-12-29T19:41:55.109Z,100301.20
2018-12-29T19:44:44.812Z,100306.80
2018-12-29T19:47:50.007Z,100299.01
2018-12-29T19:50:39.197Z,100304.65
2018-12-29T19:53:43.915Z,100311.98
2018-12-29T19:56:35.303Z,100308.09
2018-12-29T19:59:40.331Z,100316.69
2018-12-29T20:02:31.205Z,100321.46
2018-12-29T20:05:37.109Z,100319.27
2018-12-29T20:08:25.468Z,100321.83
2018-12-29T20:11:31.540Z,100322.20
2018-12-29T20:14:19.573Z,100327.83
2018-12-29T20:17:24.131Z,100322.66
2018-12-29T20:20:11.960Z,100320.50
2018-12-29T20:26:31.604Z,100337.80
2018-12-29T20:29:40.481Z,100339.03
2018-12-29T20:32:45.533Z,100335.17
2018-12-29T20:35:33.604Z,100332.98
2018-12-29T20:38:38.405Z,100332.56
2018-12-29T20:41:44.417Z,100327.79
2018-12-29T20:44:36.655Z,100327.33
2018-12-29T20:47:50.471Z,100331.14
2018-12-29T20:50:38.628Z,100323.33
2018-12-29T20:53:43.919Z,100324.98
2018-12-29T20:56:51.075Z,100325.84
2018-12-29T20:59:43.685Z,100320.72
2018-12-29T21:02:50.960Z,100327.59
2018-12-29T21:05:40.398Z,100322.84
2018-12-29T21:08:46.307Z,100328.95
2018-12-29T21:11:34.133Z,100331.96
2018-12-29T21:14:38.867Z,100324.58
2018-12-29T21:17:26.905Z,100330.16
2018-12-29T21:20:34.732Z,100333.98
2018-12-29T21:23:27.775Z,100328.46
2018-12-29T21:26:33.276Z,100325.82
2018-12-29T21:29:21.600Z,100327.87
2018-12-29T21:32:26.089Z,100329.01
2018-12-29T21:35:14.458Z,100336.22
2018-12-29T21:38:22.098Z,100346.55
2018-12-29T21:41:31.297Z,100340.09
2018-12-29T21:44:19.451Z,100339.33
2018-12-29T21:47:24.134Z,100342.50
2018-12-29T21:50:12.076Z,100335.57
2018-12-29T21:53:16.909Z,100335.57
2018-12-29T21:56:06.512Z,100330.91
2018-12-29T21:59:14.237Z,100331.83
2018-12-29T22:02:02.250Z,100331.00
2018-12-29T22:05:07.175Z,100335.69
2018-12-29T22:07:58.858Z,100334.34
2018-12-29T22:11:04.693Z,100345.02
2018-12-29T22:13:52.576Z,100341.94
2018-12-29T22:16:57.273Z,100346.72
2018-12-29T22:19:46.591Z,100345.02
2018-12-29T22:22:51.447Z,100343.33
2018-12-29T22:25:48.002Z,100342.90
2018-12-29T22:28:49.625Z,100337.23
2018-12-29T22:34:44.305Z,100322.61
2018-12-29T22:37:53.126Z,100326.02
2018-12-29T22:40:44.173Z,100323.01
2018-12-29T22:43:54.964Z,100315.22
2018-12-29T22:47:02.272Z,100309.61
2018-12-29T22:50:08.719Z,100304.84
2018-12-29T22:52:58.248Z,100310.56
2018-12-29T22:56:04.681Z,100301.08
2018-12-29T23:02:27.886Z,100294.98
2018-12-29T23:05:35.319Z,100294.47
2018-12-29T23:08:25.368Z,100284.00
2018-12-29T23:11:31.852Z,100284.41
2018-12-29T23:14:21.395Z,100280.13
2018-12-29T23:20:36.466Z,100274.98
2018-12-29T23:23:48.812Z,100272.86
2018-12-29T23:26:38.652Z,100267.59
2018-12-29T23:29:45.453Z,100259.81
2018-12-29T23:35:48.279Z,100257.90
2018-12-29T23:38:55.459Z,100263.36
2018-12-29T23:41:45.173Z,100261.92
2018-12-29T23:44:51.336Z,100254.42
2018-12-29T23:47:57.282Z,100256.02
2018-12-29T23:54:16.731Z,100255.03
2018-12-29T23:57:23.524Z,100258.68
